createdAt,value
2022-12-26T00:00:54.196Z,88168.84
2022-12-26T00:03:22.389Z,88281.84
2022-12-26T00:05:51.877Z,88415.91
2022-12-26T00:08:19.976Z,88503.41
2022-12-26T00:10:47.899Z,88590.56
2022-12-26T00:13:38.242Z,88639.75
2022-12-26T00:16:08.074Z,88660.88
2022-12-26T00:18:36.032Z,88781.50
2022-12-26T00:21:06.112Z,88844.88
2022-12-26T00:23:34.140Z,88862.53
2022-12-26T00:26:04.477Z,88884.03
2022-12-26T00:28:32.745Z,88864.47
2022-12-26T00:31:04.054Z,88889.03
2022-12-26T00:33:32.110Z,88867.13
2022-12-26T00:36:02.823Z,88860.63
2022-12-26T00:38:32.481Z,88876.75
2022-12-26T00:41:00.514Z,88905.16
2022-12-26T00:43:28.520Z,88841.03
2022-12-26T00:45:56.390Z,88806.06
2022-12-26T00:48:25.620Z,88775.00
2022-12-26T00:50:53.810Z,88801.88
2022-12-26T00:53:22.336Z,88811.06
2022-12-26T00:55:51.992Z,88826.84
2022-12-26T00:58:20.385Z,88812.56
2022-12-26T01:00:48.765Z,88831.78
2022-12-26T01:03:17.595Z,88844.47
2022-12-26T01:05:48.833Z,88852.53
2022-12-26T01:08:20.027Z,88873.25
2022-12-26T01:10:53.885Z,88859.47
2022-12-26T01:13:22.271Z,88895.16
2022-12-26T01:15:51.707Z,88927.44
2022-12-26T01:18:19.751Z,88951.63
2022-12-26T01:20:48.237Z,88932.41
2022-12-26T01:23:16.550Z,89005.38
2022-12-26T01:26:17.324Z,89062.19
2022-12-26T01:28:34.543Z,89031.13
2022-12-26T01:31:04.215Z,89140.19
2022-12-26T01:33:32.671Z,89191.19
2022-12-26T01:36:00.745Z,89244.28
2022-12-26T01:38:29.372Z,89208.88
2022-12-26T01:41:11.298Z,89273.78
2022-12-26T01:43:52.842Z,89165.88
2022-12-26T01:46:23.996Z,89223.03
2022-12-26T01:48:53.371Z,89228.84
2022-12-26T01:51:26.299Z,89207.78
2022-12-26T01:54:40.248Z,89172.75
2022-12-26T01:56:48.461Z,89119.84
2022-12-26T01:59:22.060Z,89069.16
2022-12-26T02:01:53.004Z,89049.13
2022-12-26T02:04:47.550Z,89006.88
2022-12-26T02:07:15.520Z,88946.59
2022-12-26T02:09:43.892Z,88941.59
2022-12-26T02:12:35.176Z,88930.81
2022-12-26T02:15:11.434Z,88902.78
2022-12-26T02:17:40.934Z,88977.69
2022-12-26T02:20:19.360Z,88958.88
2022-12-26T02:23:21.705Z,88915.47
2022-12-26T02:26:21.433Z,88918.19
2022-12-26T02:29:13.323Z,88895.16
2022-12-26T02:31:53.447Z,88911.63
2022-12-26T02:34:28.456Z,88902.50
2022-12-26T02:37:16.151Z,88821.06
2022-12-26T02:40:00.045Z,88786.47
2022-12-26T02:42:38.608Z,88795.72
2022-12-26T02:45:32.578Z,88750.78
2022-12-26T02:48:08.923Z,88589.91
2022-12-26T02:51:10.279Z,88517.31
2022-12-26T02:54:03.751Z,88389.75
2022-12-26T02:56:54.175Z,88325.75
2022-12-26T02:59:55.614Z,88222.00
2022-12-26T03:02:49.270Z,88160.69
2022-12-26T03:05:41.418Z,88029.91
2022-12-26T03:08:30.769Z,87901.31
2022-12-26T03:11:17.460Z,87751.91
2022-12-26T03:13:47.005Z,87593.66
2022-12-26T03:16:34.790Z,87486.47
2022-12-26T03:19:07.326Z,87412.94
2022-12-26T03:21:41.554Z,87429.84
2022-12-26T03:24:12.121Z,87434.19
2022-12-26T03:26:47.606Z,87468.59
2022-12-26T03:29:35.856Z,87469.81
2022-12-26T03:32:06.513Z,87354.63
2022-12-26T03:34:34.805Z,87344.31
2022-12-26T03:37:47.959Z,87409.25
2022-12-26T03:40:49.919Z,87392.38
2022-12-26T03:43:50.251Z,87459.19
2022-12-26T03:46:48.131Z,87506.53
2022-12-26T03:49:38.858Z,87477.25
2022-12-26T03:52:34.008Z,87473.06
2022-12-26T03:55:26.332Z,87468.09
2022-12-26T03:58:19.774Z,87515.22
2022-12-26T04:01:19.568Z,87573.13
2022-12-26T04:04:07.833Z,87570.09
2022-12-26T04:07:03.631Z,87576.59
2022-12-26T04:09:56.067Z,87602.81
2022-12-26T04:12:45.176Z,87626.34
2022-12-26T04:15:39.022Z,87582.50
2022-12-26T04:18:29.199Z,87583.72
2022-12-26T04:21:31.421Z,87550.28
2022-12-26T04:24:20.873Z,87580.44
2022-12-26T04:27:12.978Z,87556.69
2022-12-26T04:29:58.703Z,87575.75
2022-12-26T04:32:56.764Z,87618.84
2022-12-26T04:35:49.135Z,87592.09
2022-12-26T04:38:40.251Z,87615.25
2022-12-26T04:41:27.934Z,87582.38
2022-12-26T04:44:10.034Z,87579.56
2022-12-26T04:46:40.344Z,87540.22
2022-12-26T04:49:27.625Z,87572.72
2022-12-26T04:51:57.284Z,87576.75
2022-12-26T04:54:25.232Z,87592.69
2022-12-26T04:56:53.669Z,87607.28
2022-12-26T04:59:23.970Z,87620.38
2022-12-26T05:02:09.716Z,87589.09
2022-12-26T05:05:00.511Z,87512.13
2022-12-26T05:07:48.599Z,87501.22
2022-12-26T05:10:19.559Z,87470.81
2022-12-26T05:12:47.784Z,87502.56
2022-12-26T05:15:17.967Z,87510.72
2022-12-26T05:18:03.407Z,87496.03
2022-12-26T05:20:48.720Z,87486.19
2022-12-26T05:23:40.115Z,87507.59
2022-12-26T05:26:31.487Z,87519.09
2022-12-26T05:29:01.392Z,87523.56
2022-12-26T05:31:35.481Z,87578.84
2022-12-26T05:34:06.488Z,87556.50
2022-12-26T05:36:38.846Z,87816.91
2022-12-26T05:39:07.362Z,87859.44
2022-12-26T05:41:35.580Z,87898.72
2022-12-26T05:44:03.638Z,87940.16
2022-12-26T05:46:33.071Z,87945.03
2022-12-26T05:49:01.363Z,87940.59
2022-12-26T05:51:29.338Z,87986.03
2022-12-26T05:53:57.253Z,88041.34
2022-12-26T05:56:25.389Z,88041.66
2022-12-26T05:58:56.065Z,88057.34
2022-12-26T06:01:24.908Z,88098.13
2022-12-26T06:03:56.501Z,88111.22
2022-12-26T06:06:25.934Z,88145.44
2022-12-26T06:08:56.593Z,88145.78
2022-12-26T06:11:26.659Z,88179.59
2022-12-26T06:13:55.441Z,88173.38
2022-12-26T06:16:23.690Z,88188.34
2022-12-26T06:18:52.502Z,88205.22
2022-12-26T06:21:22.660Z,88194.44
2022-12-26T06:23:51.431Z,88254.00
2022-12-26T06:26:19.669Z,88260.88
2022-12-26T06:28:47.889Z,88295.09
2022-12-26T06:31:18.293Z,88297.31
2022-12-26T06:33:46.378Z,88326.06
2022-12-26T06:36:16.645Z,88304.91
2022-12-26T06:38:46.253Z,88321.84
2022-12-26T06:41:16.942Z,88332.22
2022-12-26T06:43:45.559Z,88360.63
2022-12-26T06:46:15.195Z,88366.72
2022-12-26T06:48:43.243Z,88390.59
2022-12-26T06:51:13.342Z,88422.44
2022-12-26T06:53:41.428Z,88463.50
2022-12-26T06:56:13.063Z,88472.69
2022-12-26T06:58:41.464Z,88449.66
2022-12-26T07:01:11.858Z,88422.75
2022-12-26T07:03:46.603Z,88381.94
2022-12-26T07:06:23.540Z,88387.41
2022-12-26T07:08:52.034Z,88409.66
2022-12-26T07:11:23.480Z,88433.44
2022-12-26T07:13:51.866Z,88483.38
2022-12-26T07:16:19.959Z,88496.03
2022-12-26T07:18:48.323Z,88470.25
2022-12-26T07:21:17.400Z,88461.38
2022-12-26T07:23:45.812Z,88500.59
2022-12-26T07:26:13.790Z,88533.63
2022-12-26T07:28:43.320Z,88546.28
2022-12-26T07:31:11.379Z,88593.13
2022-12-26T07:33:39.461Z,88606.16
2022-12-26T07:36:08.389Z,88596.97
2022-12-26T07:38:36.465Z,88577.75
2022-12-26T07:41:25.327Z,88565.03
2022-12-26T07:43:54.772Z,88553.94
2022-12-26T07:46:23.238Z,88576.56
2022-12-26T07:48:51.354Z,88590.41
2022-12-26T07:51:19.399Z,88548.44
2022-12-26T07:53:48.524Z,88564.19
2022-12-26T07:56:16.525Z,88556.09
2022-12-26T07:58:44.485Z,88572.22
2022-12-26T08:01:13.917Z,88612.94
2022-12-26T08:03:42.058Z,88640.56
2022-12-26T08:06:11.212Z,88683.59
2022-12-26T08:08:42.831Z,88656.28
2022-12-26T08:11:17.492Z,88723.53
2022-12-26T08:13:45.645Z,88777.28
2022-12-26T08:16:16.190Z,88820.28
2022-12-26T08:18:44.253Z,88842.94
2022-12-26T08:21:13.204Z,88857.53
2022-12-26T08:23:41.497Z,88912.84
2022-12-26T08:26:11.529Z,88947.75
2022-12-26T08:28:43.218Z,88995.31
2022-12-26T08:31:13.862Z,89015.34
2022-12-26T08:33:43.326Z,89051.88
2022-12-26T08:36:13.240Z,89125.94
2022-12-26T08:38:42.085Z,89193.84
2022-12-26T08:41:10.034Z,89239.50
2022-12-26T08:44:25.656Z,89253.78
2022-12-26T08:46:26.120Z,89254.16
2022-12-26T08:48:55.346Z,89279.94
2022-12-26T08:51:25.740Z,89312.53
2022-12-26T08:53:56.130Z,89311.84
2022-12-26T08:56:26.211Z,89352.81
2022-12-26T08:58:54.674Z,89360.50
2022-12-26T09:01:25.214Z,89395.75
2022-12-26T09:03:55.984Z,89362.97
2022-12-26T09:06:24.693Z,89387.81
2022-12-26T09:08:52.689Z,89422.06
2022-12-26T09:11:22.719Z,89472.97
2022-12-26T09:13:51.835Z,89449.44
2022-12-26T09:16:21.807Z,89482.81
2022-12-26T09:18:53.923Z,89524.56
2022-12-26T09:21:23.842Z,89532.22
2022-12-26T09:23:51.962Z,89587.66
2022-12-26T09:26:21.261Z,89644.63
2022-12-26T09:28:49.552Z,89651.03
2022-12-26T09:31:20.955Z,89721.91
2022-12-26T09:33:49.179Z,89746.88
2022-12-26T09:36:18.793Z,89777.63
2022-12-26T09:38:49.927Z,89757.88
2022-12-26T09:41:33.995Z,89788.94
2022-12-26T09:44:08.785Z,89796.38
2022-12-26T09:46:45.367Z,89499.41
2022-12-26T09:49:17.756Z,89484.84
2022-12-26T09:51:50.753Z,89491.78
2022-12-26T09:54:32.850Z,89511.00
2022-12-26T09:57:03.927Z,89512.69
2022-12-26T09:59:38.792Z,89556.31
2022-12-26T10:02:17.608Z,89580.84
2022-12-26T10:04:45.946Z,89574.84
2022-12-26T10:07:23.019Z,89564.97
2022-12-26T10:10:09.199Z,89572.28
2022-12-26T10:12:41.434Z,89583.84
2022-12-26T10:15:31.659Z,89571.69
2022-12-26T10:18:12.731Z,89620.06
2022-12-26T10:20:55.432Z,89646.50
2022-12-26T10:23:34.557Z,89702.50
2022-12-26T10:26:10.650Z,89693.50
2022-12-26T10:28:42.854Z,89705.16
2022-12-26T10:31:19.221Z,89779.41
2022-12-26T10:33:53.001Z,89817.38
2022-12-26T10:36:30.691Z,89819.88
2022-12-26T10:39:01.733Z,89841.50
2022-12-26T10:41:36.591Z,89899.03
2022-12-26T10:44:05.205Z,89916.44
2022-12-26T10:46:49.834Z,89933.41
2022-12-26T10:49:21.438Z,89959.44
2022-12-26T10:51:50.834Z,90018.44
2022-12-26T10:54:20.196Z,90004.09
2022-12-26T10:56:52.969Z,89984.25
2022-12-26T10:59:23.975Z,89993.44
2022-12-26T11:01:52.049Z,90028.31
2022-12-26T11:05:10.510Z,90027.44
2022-12-26T11:07:13.751Z,89993.72
2022-12-26T11:09:44.066Z,90052.84
2022-12-26T11:12:22.464Z,90114.88
2022-12-26T11:14:51.710Z,90175.75
2022-12-26T11:17:27.862Z,90199.63
2022-12-26T11:20:23.871Z,90168.78
2022-12-26T11:22:52.609Z,90174.72
2022-12-26T11:25:23.255Z,90229.59
2022-12-26T11:27:54.351Z,90296.69
2022-12-26T11:30:30.271Z,90319.69
2022-12-26T11:33:19.424Z,90352.00
2022-12-26T11:35:51.387Z,90371.28
2022-12-26T11:38:44.041Z,90409.41
2022-12-26T11:41:36.600Z,90396.97
2022-12-26T11:44:27.086Z,90420.94
2022-12-26T11:47:00.389Z,90481.56
2022-12-26T11:49:33.293Z,90555.13
2022-12-26T11:52:03.461Z,90571.91
2022-12-26T11:54:35.214Z,90611.59
2022-12-26T11:57:20.547Z,90653.47
2022-12-26T11:59:51.137Z,90672.31
2022-12-26T12:02:26.534Z,90700.38
2022-12-26T12:04:58.314Z,90716.88
2022-12-26T12:07:44.542Z,90740.78
2022-12-26T12:10:35.582Z,90720.22
2022-12-26T12:13:12.648Z,90788.66
2022-12-26T12:15:47.174Z,90834.19
2022-12-26T12:18:21.329Z,90875.81
2022-12-26T12:21:04.804Z,90920.28
2022-12-26T12:23:46.820Z,90978.63
2022-12-26T12:26:19.453Z,91020.94
2022-12-26T12:29:13.080Z,91085.91
2022-12-26T12:31:52.102Z,91161.47
2022-12-26T12:34:28.796Z,91179.31
2022-12-26T12:37:12.809Z,91230.16
2022-12-26T12:39:53.293Z,91258.69
2022-12-26T12:42:34.162Z,91369.84
2022-12-26T12:45:21.780Z,91328.06
2022-12-26T12:48:09.064Z,91300.38
2022-12-26T12:50:43.830Z,91258.13
2022-12-26T12:53:23.060Z,91310.28
2022-12-26T12:56:04.508Z,91255.50
2022-12-26T12:58:41.940Z,91324.69
2022-12-26T13:01:14.908Z,91342.06
2022-12-26T13:03:51.190Z,91290.22
2022-12-26T13:06:23.810Z,91418.59
2022-12-26T13:08:55.767Z,91485.31
2022-12-26T13:11:27.972Z,91486.91
2022-12-26T13:14:00.379Z,91519.13
2022-12-26T13:16:32.523Z,91510.47
2022-12-26T13:19:04.299Z,91594.09
2022-12-26T13:21:37.336Z,91702.59
2022-12-26T13:24:24.249Z,91767.72
2022-12-26T13:26:59.354Z,91788.31
2022-12-26T13:29:36.963Z,91882.75
2022-12-26T13:32:15.743Z,91891.44
2022-12-26T13:34:46.107Z,91956.47
2022-12-26T13:37:51.511Z,91989.75
2022-12-26T13:40:22.313Z,91980.88
2022-12-26T13:43:12.175Z,91962.31
2022-12-26T13:45:49.867Z,91987.16
2022-12-26T13:48:55.087Z,91981.53
2022-12-26T13:51:48.516Z,91964.81
2022-12-26T13:54:18.428Z,91990.72
2022-12-26T13:57:34.407Z,91983.63
2022-12-26T14:00:19.005Z,91882.00
2022-12-26T14:03:19.768Z,92035.91
2022-12-26T14:06:07.586Z,92104.03
2022-12-26T14:08:52.969Z,92129.97
2022-12-26T14:11:38.529Z,92106.72
2022-12-26T14:14:18.410Z,92204.84
2022-12-26T14:16:53.798Z,92167.09
2022-12-26T14:19:38.569Z,92171.53
2022-12-26T14:22:14.590Z,92129.16
2022-12-26T14:25:00.765Z,92132.91
2022-12-26T14:27:35.641Z,92162.72
2022-12-26T14:30:20.764Z,92160.56
2022-12-26T14:33:01.739Z,92191.75
2022-12-26T14:35:35.084Z,92216.59
2022-12-26T14:38:19.061Z,92266.56
2022-12-26T14:41:02.770Z,92264.28
2022-12-26T14:43:34.165Z,92290.06
2022-12-26T14:46:03.611Z,92315.75
2022-12-26T14:48:55.544Z,92342.66
2022-12-26T14:51:40.200Z,92428.31
2022-12-26T14:54:39.131Z,92471.72
2022-12-26T14:57:43.314Z,92398.19
2022-12-26T15:00:28.271Z,92449.91
2022-12-26T15:03:38.225Z,92477.09
2022-12-26T15:06:40.812Z,92414.00
2022-12-26T15:09:33.807Z,92377.31
2022-12-26T15:12:58.891Z,92373.06
2022-12-26T15:15:34.352Z,92385.69
2022-12-26T15:18:50.158Z,92456.38
2022-12-26T15:21:50.423Z,92488.84
2022-12-26T15:25:17.451Z,92522.66
2022-12-26T15:27:46.181Z,92670.47
2022-12-26T15:30:21.603Z,92753.97
2022-12-26T15:33:01.638Z,92763.81
2022-12-26T15:35:34.500Z,92847.00
2022-12-26T15:38:26.948Z,92844.00
2022-12-26T15:41:13.076Z,92915.66
2022-12-26T15:44:01.969Z,92912.66
2022-12-26T15:46:32.960Z,92973.00
2022-12-26T15:49:24.179Z,92963.91
2022-12-26T15:52:02.228Z,92980.78
2022-12-26T15:54:59.890Z,92997.16
2022-12-26T15:57:37.930Z,93035.75
2022-12-26T16:00:17.707Z,93151.56
2022-12-26T16:02:57.704Z,93183.50
2022-12-26T16:05:46.296Z,93249.63
2022-12-26T16:08:32.367Z,93375.38
2022-12-26T16:11:16.342Z,93430.84
2022-12-26T16:13:59.271Z,93550.28
2022-12-26T16:16:38.572Z,93631.78
2022-12-26T16:19:17.847Z,93715.41
2022-12-26T16:22:10.551Z,93765.63
2022-12-26T16:24:40.651Z,93882.66
2022-12-26T16:27:10.644Z,93930.97
2022-12-26T16:29:46.116Z,93922.59
2022-12-26T16:32:19.508Z,93962.03
2022-12-26T16:34:49.278Z,93965.47
2022-12-26T16:37:21.362Z,93973.78
2022-12-26T16:40:18.120Z,94022.00
2022-12-26T16:42:56.238Z,94053.81
2022-12-26T16:45:25.593Z,94049.94
2022-12-26T16:47:55.138Z,94066.72
2022-12-26T16:50:26.095Z,94095.84
2022-12-26T16:53:12.221Z,94074.66
2022-12-26T16:55:43.667Z,94069.63
2022-12-26T16:58:22.875Z,94100.03
2022-12-26T17:01:01.598Z,94073.00
2022-12-26T17:03:39.548Z,94082.91
2022-12-26T17:06:13.837Z,94164.13
2022-12-26T17:08:46.556Z,94181.16
2022-12-26T17:11:15.199Z,94150.22
2022-12-26T17:13:55.013Z,94182.19
2022-12-26T17:16:25.659Z,94233.44
2022-12-26T17:18:54.839Z,94215.91
2022-12-26T17:21:28.286Z,94208.34
2022-12-26T17:24:13.307Z,94215.53
2022-12-26T17:26:42.829Z,94210.19
2022-12-26T17:29:44.066Z,94200.22
2022-12-26T17:32:16.987Z,94201.09
2022-12-26T17:34:45.452Z,94207.91
2022-12-26T17:37:22.138Z,94190.94
2022-12-26T17:40:04.209Z,94229.50
2022-12-26T17:42:45.967Z,94235.69
2022-12-26T17:45:18.168Z,94252.03
2022-12-26T17:47:46.361Z,94258.81
2022-12-26T17:50:14.735Z,94272.50
2022-12-26T17:52:43.228Z,94289.47
2022-12-26T17:55:18.244Z,94310.25
2022-12-26T17:57:46.589Z,94290.81
2022-12-26T18:00:19.799Z,94304.91
2022-12-26T18:02:47.930Z,94317.94
2022-12-26T18:05:16.780Z,94293.13
2022-12-26T18:07:45.853Z,94283.97
2022-12-26T18:10:20.019Z,94301.50
2022-12-26T18:12:48.792Z,94329.44
2022-12-26T18:15:17.814Z,94341.16
2022-12-26T18:17:46.804Z,94365.38
2022-12-26T18:20:18.520Z,94356.03
2022-12-26T18:22:47.728Z,94361.84
2022-12-26T18:25:19.759Z,94373.72
2022-12-26T18:27:48.158Z,94372.91
2022-12-26T18:30:22.354Z,94366.59
2022-12-26T18:32:52.181Z,94400.28
2022-12-26T18:35:22.469Z,94450.44
2022-12-26T18:37:52.112Z,94430.16
2022-12-26T18:40:34.478Z,94471.03
2022-12-26T18:43:03.236Z,94495.81
2022-12-26T18:45:31.609Z,94472.13
2022-12-26T18:48:00.317Z,94510.25
2022-12-26T18:50:29.600Z,94449.56
2022-12-26T18:52:57.652Z,94461.53
2022-12-26T18:55:26.785Z,94525.47
2022-12-26T18:57:56.327Z,94521.72
2022-12-26T19:00:25.399Z,94533.25
2022-12-26T19:02:55.593Z,94545.63
2022-12-26T19:05:26.203Z,94532.41
2022-12-26T19:07:55.271Z,94548.94
2022-12-26T19:10:26.591Z,94548.06
2022-12-26T19:13:02.802Z,94592.34
2022-12-26T19:15:33.651Z,94590.09
2022-12-26T19:18:01.907Z,94610.63
2022-12-26T19:20:29.988Z,94597.03
2022-12-26T19:22:58.338Z,94609.75
2022-12-26T19:25:26.840Z,94646.38
2022-12-26T19:27:56.279Z,94657.47
2022-12-26T19:30:24.308Z,94666.31
2022-12-26T19:32:52.388Z,94630.84
2022-12-26T19:35:21.175Z,94641.78
2022-12-26T19:37:48.982Z,94722.41
2022-12-26T19:40:22.912Z,94724.03
2022-12-26T19:42:52.745Z,94736.97
2022-12-26T19:45:22.401Z,94755.28
2022-12-26T19:47:50.256Z,94763.06
2022-12-26T19:50:18.229Z,94743.75
2022-12-26T19:52:46.160Z,94766.75
2022-12-26T19:55:14.462Z,94820.97
2022-12-26T19:57:42.224Z,94825.31
2022-12-26T20:00:12.108Z,94848.47
2022-12-26T20:02:41.857Z,94871.88
2022-12-26T20:05:10.764Z,94864.50
2022-12-26T20:07:38.842Z,94863.69
2022-12-26T20:10:07.504Z,94857.97
2022-12-26T20:12:35.483Z,94881.13
2022-12-26T20:15:03.533Z,94863.72
2022-12-26T20:17:31.521Z,94892.88
2022-12-26T20:20:00.927Z,94921.63
2022-12-26T20:22:29.182Z,94936.81
2022-12-26T20:24:57.065Z,94962.44
2022-12-26T20:27:25.084Z,94989.28
2022-12-26T20:29:52.955Z,94990.13
2022-12-26T20:32:20.932Z,94985.06
2022-12-26T20:34:48.985Z,94974.56
2022-12-26T20:37:18.867Z,94966.38
2022-12-26T20:39:46.806Z,94982.78
2022-12-26T20:42:16.462Z,94972.53
2022-12-26T20:44:44.432Z,94996.75
2022-12-26T20:47:12.532Z,94994.50
2022-12-26T20:49:40.319Z,95002.53
2022-12-26T20:52:08.230Z,95024.63
2022-12-26T20:54:37.617Z,95047.16
2022-12-26T20:57:05.554Z,95035.28
2022-12-26T20:59:33.478Z,95039.41
2022-12-26T21:02:01.504Z,95031.59
2022-12-26T21:04:29.523Z,94999.91
2022-12-26T21:06:57.420Z,95018.97
2022-12-26T21:09:25.338Z,95039.03
2022-12-26T21:11:54.774Z,95053.22
2022-12-26T21:14:23.769Z,95053.22
2022-12-26T21:16:53.967Z,95036.25
2022-12-26T21:19:22.907Z,95077.44
2022-12-26T21:21:52.719Z,95081.22
2022-12-26T21:24:23.220Z,95086.78
2022-12-26T21:26:52.067Z,95106.47
2022-12-26T21:29:24.658Z,95101.56
2022-12-26T21:31:53.378Z,95119.88
2022-12-26T21:34:23.583Z,95118.88
2022-12-26T21:37:09.277Z,95128.09
2022-12-26T21:39:38.678Z,95151.66
2022-12-26T21:42:08.183Z,95141.44
2022-12-26T21:44:37.993Z,95179.97
2022-12-26T21:47:08.068Z,95149.72
2022-12-26T21:49:36.199Z,95173.66
2022-12-26T21:52:04.293Z,95204.97
2022-12-26T21:54:51.481Z,95207.88
2022-12-26T21:57:20.017Z,95212.59
2022-12-26T21:59:58.982Z,95211.41
2022-12-26T22:02:47.039Z,95223.91
2022-12-26T22:05:15.682Z,95255.81
2022-12-26T22:07:43.774Z,95240.56
2022-12-26T22:10:33.543Z,95267.13
2022-12-26T22:13:01.359Z,95241.19
2022-12-26T22:15:48.073Z,95247.59
2022-12-26T22:18:15.987Z,95258.47
2022-12-26T22:20:44.931Z,95301.22
2022-12-26T22:23:13.306Z,95254.81
2022-12-26T22:25:41.332Z,95302.59
2022-12-26T22:28:09.205Z,95300.06
2022-12-26T22:30:38.406Z,95311.25
2022-12-26T22:33:06.244Z,95300.22
2022-12-26T22:35:34.375Z,95311.31
2022-12-26T22:38:02.417Z,95302.47
2022-12-26T22:40:30.471Z,95289.19
2022-12-26T22:42:58.313Z,95332.91
2022-12-26T22:45:26.306Z,95315.69
2022-12-26T22:47:55.702Z,95303.88
2022-12-26T22:50:23.858Z,95284.13
2022-12-26T22:52:52.304Z,95317.56
2022-12-26T22:55:20.156Z,95309.97
2022-12-26T22:57:51.169Z,95281.03
2022-12-26T23:00:20.286Z,95323.47
2022-12-26T23:02:48.266Z,95316.59
2022-12-26T23:05:18.545Z,95312.09
2022-12-26T23:07:47.154Z,95294.09
2022-12-26T23:10:20.314Z,95319.63
2022-12-26T23:12:49.043Z,95338.28
2022-12-26T23:15:20.258Z,95287.94
2022-12-26T23:18:10.102Z,95298.88
2022-12-26T23:20:58.187Z,95327.53
2022-12-26T23:23:26.947Z,95302.09
2022-12-26T23:25:55.143Z,95328.88
2022-12-26T23:28:40.519Z,95336.53
2022-12-26T23:31:08.776Z,95287.22
2022-12-26T23:33:36.686Z,95298.28
2022-12-26T23:36:07.342Z,95320.63
2022-12-26T23:38:35.238Z,95315.31
2022-12-26T23:41:03.341Z,95319.59
2022-12-26T23:43:33.460Z,95322.66
2022-12-26T23:46:01.444Z,95332.81
2022-12-26T23:48:29.304Z,95314.66
2022-12-26T23:51:06.881Z,95287.50
2022-12-26T23:53:35.224Z,95310.53
2022-12-26T23:56:03.686Z,95282.72
2022-12-26T23:58:31.812Z,95274.94
